Time;durP1;ratioP1;P1;durP2;ratioP2;P2;SDS_P1;SDS_P2;PMS_P1;PMS_P2;Temp;Humidity;BMP_temperature;BMP_pressure;BME280_temperature;BME280_humidity;BME280_pressure;Samples;Min_cycle;Max_cycle;Signal;HPM_P1;HPM_P2
2022/10/16 00:00:47;;;;;;;9.73;4.68;;;;;;;11.03;nan;93883.97;4932097;29;20040;-68
2022/10/16 00:03:13;;;;;;;9.10;4.20;;;;;;;11.05;nan;93889.84;4931306;29;20036;-68
2022/10/16 00:05:42;;;;;;;8.00;4.00;;;;;;;11.00;nan;93886.38;4914938;29;20058;-68
2022/10/16 00:08:11;;;;;;;9.77;4.50;;;;;;;10.97;nan;93875.47;4931295;29;20060;-69
2022/10/16 00:10:38;;;;;;;10.70;4.60;;;;;;;11.19;nan;93882.13;4915024;29;20517;-69
2022/10/16 00:13:05;;;;;;;8.48;4.63;;;;;;;11.27;nan;93877.28;4931136;29;20069;-69
2022/10/16 00:15:38;;;;;;;16.83;5.95;;;;;;;11.16;nan;93882.97;4931828;29;20059;-69
2022/10/16 00:18:05;;;;;;;10.05;5.50;;;;;;;11.14;nan;93887.31;4934711;29;20489;-69
2022/10/16 00:20:36;;;;;;;14.77;5.90;;;;;;;11.15;nan;93884.16;4935442;29;20050;-69
2022/10/16 00:23:04;;;;;;;11.93;5.30;;;;;;;11.27;nan;93881.97;4934716;29;20039;-69
2022/10/16 00:25:36;;;;;;;10.43;5.20;;;;;;;11.18;nan;93886.06;4935225;29;20054;-69
2022/10/16 00:28:02;;;;;;;10.73;5.78;;;;;;;11.22;nan;93888.75;4933746;29;20036;-70
2022/10/16 00:30:29;;;;;;;11.32;5.32;;;;;;;11.31;nan;93888.22;4933693;29;20480;-67
2022/10/16 00:32:56;;;;;;;10.13;5.67;;;;;;;11.34;nan;93895.59;4934715;29;20519;-67
2022/10/16 00:35:23;;;;;;;12.25;5.90;;;;;;;11.38;nan;93894.34;4916919;29;20052;-67
2022/10/16 00:37:50;;;;;;;11.10;5.65;;;;;;;11.43;nan;93893.09;4934379;29;20046;-67
2022/10/16 00:40:17;;;;;;;12.00;6.15;;;;;;;11.42;nan;93897.00;4933806;29;20060;-67
2022/10/16 00:42:44;;;;;;;11.35;6.05;;;;;;;11.42;nan;93888.78;4934484;29;20043;-67
2022/10/16 00:45:10;;;;;;;13.80;6.43;;;;;;;11.47;nan;93888.28;4933579;29;20423;-67
2022/10/16 00:47:48;;;;;;;10.82;5.63;;;;;;;11.54;nan;93879.13;4934405;29;20489;-69
2022/10/16 00:50:26;;;;;;;9.48;5.15;;;;;;;11.43;nan;93897.78;4933606;29;20046;-67
2022/10/16 00:52:55;;;;;;;10.98;5.30;;;;;;;11.43;nan;93895.84;4933878;29;20400;-67
2022/10/16 00:55:22;;;;;;;13.38;6.07;;;;;;;11.46;nan;93894.97;4916620;29;20504;-67
2022/10/16 00:57:49;;;;;;;11.87;5.10;;;;;;;11.46;nan;93899.69;4934107;29;20054;-67
2022/10/16 01:00:25;;;;;;;11.77;4.85;;;;;;;11.49;nan;93899.63;4933234;29;20413;-67
2022/10/16 01:02:58;;;;;;;10.82;5.10;;;;;;;11.53;nan;93894.06;4934013;29;20040;-67
2022/10/16 01:05:42;;;;;;;9.35;5.00;;;;;;;11.59;nan;93900.63;4933088;29;20399;-67
2022/10/16 01:08:17;;;;;;;9.10;4.65;;;;;;;11.58;nan;93902.59;4933190;29;20048;-66
2022/10/16 01:10:59;;;;;;;9.97;4.43;;;;;;;11.66;nan;93902.47;4934148;29;20035;-67
2022/10/16 01:13:38;;;;;;;8.73;4.45;;;;;;;11.58;nan;93890.81;4933019;29;21660;-67
2022/10/16 01:16:08;;;;;;;14.95;5.03;;;;;;;11.63;nan;93906.03;4933248;29;20073;-68
2022/10/16 01:18:42;;;;;;;11.15;4.90;;;;;;;11.61;nan;93903.75;4933817;29;20048;-68
2022/10/16 01:21:18;;;;;;;9.15;4.65;;;;;;;11.59;nan;93903.38;4933149;29;20050;-67
2022/10/16 01:23:45;;;;;;;7.87;4.50;;;;;;;11.53;nan;93910.53;4933656;29;20040;-67
2022/10/16 01:26:31;;;;;;;9.73;4.22;;;;;;;11.54;nan;93918.38;4932823;29;20428;-68
2022/10/16 01:29:09;;;;;;;9.68;5.75;;;;;;;11.60;nan;93913.94;4931784;29;20073;-68
2022/10/16 01:31:39;;;;;;;11.10;6.28;;;;;;;11.64;nan;93913.88;4926791;29;20832;-68
2022/10/16 01:34:13;;;;;;;7.35;4.43;;;;;;;11.58;nan;93915.56;4933164;29;20052;-68
2022/10/16 01:36:43;;;;;;;8.90;4.40;;;;;;;11.55;nan;93921.88;4933940;29;20112;-68
2022/10/16 01:39:11;;;;;;;8.25;4.40;;;;;;;11.49;nan;93929.88;4933411;29;20051;-68
2022/10/16 01:41:44;;;;;;;10.68;4.90;;;;;;;11.51;nan;93932.19;4934084;29;20040;-68
2022/10/16 01:44:19;;;;;;;7.80;4.38;;;;;;;11.53;nan;93929.78;4933408;29;20047;-68
2022/10/16 01:46:50;;;;;;;7.90;4.22;;;;;;;11.57;nan;93923.03;4933801;29;20375;-68
2022/10/16 01:49:17;;;;;;;7.07;4.50;;;;;;;11.64;nan;93922.13;4933215;29;20058;-69
2022/10/16 01:51:48;;;;;;;9.65;4.72;;;;;;;11.66;nan;93916.22;4933311;29;20043;-69
2022/10/16 01:54:19;;;;;;;10.82;4.60;;;;;;;11.66;nan;93925.22;4932966;29;20052;-68
2022/10/16 01:56:48;;;;;;;8.55;4.25;;;;;;;11.61;nan;93920.22;4933682;29;20061;-68
2022/10/16 01:59:20;;;;;;;9.07;4.53;;;;;;;11.64;nan;93922.13;4933140;29;20044;-69
2022/10/16 02:01:54;;;;;;;7.67;4.47;;;;;;;11.64;nan;93916.63;4933367;29;20043;-68
2022/10/16 02:04:27;;;;;;;7.53;4.50;;;;;;;11.53;nan;93910.53;4933090;29;20044;-68
2022/10/16 02:06:55;;;;;;;7.82;4.50;;;;;;;11.48;nan;93922.81;4933428;29;20040;-68
2022/10/16 02:09:22;;;;;;;9.52;5.30;;;;;;;11.50;nan;93916.91;4932775;29;20036;-69
2022/10/16 02:11:53;;;;;;;9.75;5.68;;;;;;;11.54;nan;93915.63;4933383;29;20050;-68
2022/10/16 02:14:22;;;;;;;9.23;5.20;;;;;;;11.56;nan;93909.72;4932785;29;20048;-68
2022/10/16 02:16:49;;;;;;;11.70;4.95;;;;;;;11.59;nan;93919.88;4933157;29;20105;-68
2022/10/16 02:19:19;;;;;;;10.32;5.10;;;;;;;11.52;nan;93920.00;4932502;29;20313;-69
2022/10/16 02:21:57;;;;;;;8.38;4.80;;;;;;;11.33;nan;93922.31;4933003;29;20054;-68
2022/10/16 02:24:33;;;;;;;10.27;5.15;;;;;;;11.34;nan;93912.09;4932747;29;20090;-69
2022/10/16 02:26:59;;;;;;;8.20;5.17;;;;;;;11.37;nan;93917.53;4920300;29;20050;-69
2022/10/16 02:29:27;;;;;;;11.65;4.97;;;;;;;11.36;nan;93917.94;4932796;29;20052;-69
2022/10/16 02:32:00;;;;;;;10.30;4.82;;;;;;;11.37;nan;93906.53;4932713;29;20090;-68
2022/10/16 02:34:30;;;;;;;11.15;6.32;;;;;;;11.45;nan;93903.63;4932124;29;20924;-68
2022/10/16 02:36:59;;;;;;;10.45;5.07;;;;;;;11.41;nan;93903.72;4932690;29;20047;-69
2022/10/16 02:39:28;;;;;;;12.87;8.37;;;;;;;11.30;nan;93898.41;4931500;29;20690;-68
2022/10/16 02:41:55;;;;;;;10.70;6.10;;;;;;;11.35;nan;93908.16;4932329;29;20050;-68
2022/10/16 02:44:22;;;;;;;11.20;6.13;;;;;;;11.43;nan;93898.59;4930391;29;20387;-67
2022/10/16 02:46:49;;;;;;;11.73;6.15;;;;;;;11.46;nan;93900.47;4932566;29;20051;-67
2022/10/16 02:49:16;;;;;;;10.82;5.25;;;;;;;11.45;nan;93898.94;4932030;29;20044;-68
2022/10/16 02:51:42;;;;;;;9.27;5.00;;;;;;;11.36;nan;93907.72;4932439;29;20040;-68
2022/10/16 02:54:09;;;;;;;10.55;5.00;;;;;;;11.43;nan;93923.31;4899376;29;20050;-68
2022/10/16 02:56:36;;;;;;;10.82;5.15;;;;;;;11.46;nan;93916.97;4932518;29;20058;-68
2022/10/16 02:59:03;;;;;;;11.98;5.35;;;;;;;11.48;nan;93925.56;4931863;29;20054;-68
2022/10/16 03:01:29;;;;;;;10.52;5.07;;;;;;;11.32;nan;93928.97;4932232;29;20047;-68
2022/10/16 03:03:56;;;;;;;10.17;4.43;;;;;;;11.28;nan;93936.50;4932655;29;20543;-68
2022/10/16 03:06:23;;;;;;;8.30;4.40;;;;;;;11.27;nan;93934.19;4931940;29;20051;-67
2022/10/16 03:08:50;;;;;;;8.55;4.57;;;;;;;11.26;nan;93936.16;4932530;29;20054;-68
2022/10/16 03:11:16;;;;;;;9.15;4.63;;;;;;;11.24;nan;93938.53;4915263;29;20044;-68
2022/10/16 03:13:43;;;;;;;7.70;4.60;;;;;;;11.28;nan;93928.28;4932190;29;20048;-68
2022/10/16 03:16:10;;;;;;;9.80;4.80;;;;;;;11.25;nan;93931.88;4932214;29;20050;-68
2022/10/16 03:18:37;;;;;;;11.90;4.93;;;;;;;11.27;nan;93920.44;4932351;29;20043;-68
2022/10/16 03:21:04;;;;;;;9.75;5.60;;;;;;;11.25;nan;93926.38;4931749;29;20112;-68
2022/10/16 03:23:30;;;;;;;9.73;5.30;;;;;;;11.34;nan;93925.81;4932475;29;20043;-68
2022/10/16 03:25:57;;;;;;;9.73;4.57;;;;;;;11.35;nan;93919.91;4932251;29;20511;-68
2022/10/16 03:28:24;;;;;;;9.13;4.50;;;;;;;11.32;nan;93926.22;4931849;29;20900;-68
2022/10/16 03:30:51;;;;;;;6.82;4.03;;;;;;;11.24;nan;93930.31;4932317;29;20039;-68
2022/10/16 03:33:18;;;;;;;6.70;4.00;;;;;;;11.14;nan;93932.03;4931823;29;20051;-68
2022/10/16 03:35:52;;;;;;;7.78;3.95;;;;;;;11.03;nan;93931.47;4932126;29;20054;-68
2022/10/16 03:38:19;;;;;;;10.93;3.97;;;;;;;10.94;nan;93929.22;4931952;29;20133;-68
2022/10/16 03:40:46;;;;;;;7.17;3.97;;;;;;;10.85;nan;93937.25;4932283;29;20063;-68
2022/10/16 03:43:13;;;;;;;9.73;4.55;;;;;;;10.84;nan;93941.16;4931683;29;20054;-68
2022/10/16 03:45:41;;;;;;;8.43;4.50;;;;;;;10.86;nan;93949.00;4930067;29;20054;-68
2022/10/16 03:48:07;;;;;;;8.50;4.90;;;;;;;10.80;nan;93945.94;4901446;29;20036;-68
2022/10/16 03:50:34;;;;;;;8.25;5.13;;;;;;;10.92;nan;93944.59;4932149;29;20047;-68
2022/10/16 03:53:01;;;;;;;9.17;5.10;;;;;;;10.94;nan;93940.22;4934448;29;20050;-68
2022/10/16 03:55:28;;;;;;;7.93;4.63;;;;;;;10.86;nan;93943.50;4935770;29;20575;-68
2022/10/16 03:57:54;;;;;;;10.25;4.60;;;;;;;10.93;nan;93935.94;4935869;29;20094;-68
2022/10/16 04:00:21;;;;;;;8.57;4.38;;;;;;;11.02;nan;93934.63;4935351;29;20040;-68
2022/10/16 04:02:48;;;;;;;8.23;4.43;;;;;;;11.10;nan;93936.81;4935701;29;20048;-68
2022/10/16 04:05:15;;;;;;;8.30;5.10;;;;;;;11.09;nan;93940.78;4918247;29;20047;-68
2022/10/16 04:07:41;;;;;;;10.00;5.82;;;;;;;10.97;nan;93942.16;4935555;29;20043;-68
2022/10/16 04:10:09;;;;;;;10.20;5.40;;;;;;;10.89;nan;93932.47;4918231;29;20388;-68
2022/10/16 04:12:36;;;;;;;12.48;5.50;;;;;;;10.89;nan;93942.69;4935331;29;20050;-68
2022/10/16 04:15:03;;;;;;;10.32;5.38;;;;;;;10.81;nan;93933.78;4935121;29;20451;-66
2022/10/16 04:17:29;;;;;;;10.50;5.80;;;;;;;10.77;nan;93935.81;4935414;29;20047;-68
2022/10/16 04:19:56;;;;;;;11.75;5.80;;;;;;;10.69;nan;93923.38;4935229;29;20055;-68
2022/10/16 04:22:23;;;;;;;10.13;5.68;;;;;;;10.84;nan;93934.91;4917817;29;20382;-68
2022/10/16 04:24:50;;;;;;;9.95;6.13;;;;;;;10.90;nan;93936.75;4935359;29;20043;-68
2022/10/16 04:27:17;;;;;;;9.15;5.40;;;;;;;10.95;nan;93938.28;4934667;29;20058;-68
2022/10/16 04:29:43;;;;;;;20.40;11.87;;;;;;;10.86;nan;93941.53;4935046;29;20047;-68
2022/10/16 04:32:10;;;;;;;10.70;5.65;;;;;;;10.86;nan;93943.50;4934671;29;20032;-68
2022/10/16 04:34:39;;;;;;;11.02;5.28;;;;;;;10.87;nan;93945.84;4934960;29;20050;-69
2022/10/16 04:37:06;;;;;;;9.85;5.15;;;;;;;10.95;nan;93941.00;4934491;29;20048;-70
2022/10/16 04:39:33;;;;;;;7.68;4.80;;;;;;;10.84;nan;93948.63;4918023;29;20050;-69
2022/10/16 04:42:00;;;;;;;9.37;4.87;;;;;;;10.93;nan;93954.38;4934653;29;20059;-69
2022/10/16 04:44:26;;;;;;;10.05;5.32;;;;;;;10.91;nan;93949.31;4933090;29;20040;-69
2022/10/16 04:46:53;;;;;;;10.82;5.03;;;;;;;10.93;nan;93946.91;4934829;29;20047;-68
2022/10/16 04:49:20;;;;;;;10.95;4.80;;;;;;;10.84;nan;93952.16;4916836;29;20058;-69
2022/10/16 04:51:47;;;;;;;9.75;4.70;;;;;;;10.86;nan;93946.25;4934073;29;20065;-69
2022/10/16 04:54:14;;;;;;;8.57;4.83;;;;;;;10.90;nan;93945.00;4933482;29;20054;-69
2022/10/16 04:56:46;;;;;;;10.32;4.53;;;;;;;10.95;nan;93952.75;4934333;29;20699;-69
2022/10/16 04:59:14;;;;;;;10.20;5.30;;;;;;;11.02;nan;93951.88;4933373;29;20040;-70
2022/10/16 05:01:41;;;;;;;7.72;4.75;;;;;;;11.05;nan;93953.78;4934128;29;20485;-68
2022/10/16 05:04:09;;;;;;;9.30;5.13;;;;;;;10.97;nan;93955.09;4932765;29;20050;-69
2022/10/16 05:06:36;;;;;;;8.13;4.90;;;;;;;11.10;nan;93969.00;4933738;29;20039;-69
2022/10/16 05:09:03;;;;;;;9.82;5.65;;;;;;;11.14;nan;93965.00;4933472;29;20420;-69
2022/10/16 05:11:29;;;;;;;12.07;7.18;;;;;;;11.10;nan;93964.28;4933750;29;20047;-69
2022/10/16 05:13:56;;;;;;;9.30;5.43;;;;;;;11.04;nan;93965.94;4933814;29;20496;-69
2022/10/16 05:16:23;;;;;;;11.60;5.20;;;;;;;11.06;nan;93971.81;4933096;29;20674;-69
2022/10/16 05:18:51;;;;;;;9.97;4.60;;;;;;;11.04;nan;93957.72;4933965;29;20043;-69
2022/10/16 05:21:19;;;;;;;10.15;4.82;;;;;;;11.00;nan;93963.25;4932858;29;20058;-69
2022/10/16 05:23:46;;;;;;;8.85;5.40;;;;;;;11.03;nan;93963.63;4933659;29;20046;-69
2022/10/16 05:26:13;;;;;;;8.73;5.50;;;;;;;11.07;nan;93967.88;4932811;29;20054;-69
2022/10/16 05:28:40;;;;;;;9.20;5.75;;;;;;;11.14;nan;93959.50;4933470;29;20043;-69
2022/10/16 05:31:08;;;;;;;17.47;10.37;;;;;;;11.20;nan;93970.78;4933103;29;20044;-69
2022/10/16 05:33:35;;;;;;;10.43;6.63;;;;;;;11.23;nan;93966.44;4933426;29;20054;-69
2022/10/16 05:36:04;;;;;;;10.52;6.22;;;;;;;11.23;nan;93966.44;4932904;29;20058;-69
2022/10/16 05:38:31;;;;;;;10.40;5.40;;;;;;;11.12;nan;93969.38;4933483;29;20492;-69
2022/10/16 05:40:58;;;;;;;11.60;5.80;;;;;;;11.14;nan;93961.47;4916273;29;20073;-70
2022/10/16 05:43:26;;;;;;;11.67;5.83;;;;;;;11.20;nan;93963.31;4932265;29;21794;-69
2022/10/16 05:46:06;;;;;;;9.48;5.72;;;;;;;11.28;nan;93961.25;4933388;29;20055;-69
2022/10/16 05:48:33;;;;;;;11.70;6.00;;;;;;;11.29;nan;93962.81;4932209;29;20705;-69
2022/10/16 05:51:06;;;;;;;10.98;6.22;;;;;;;11.33;nan;93966.25;4932833;29;20048;-67
2022/10/16 05:53:35;;;;;;;15.10;8.18;;;;;;;11.32;nan;93970.19;4932907;29;20040;-69
2022/10/16 05:56:03;;;;;;;17.40;9.17;;;;;;;11.39;nan;93972.84;4932446;29;20052;-67
2022/10/16 05:58:35;;;;;;;14.85;8.00;;;;;;;11.44;nan;93974.31;4932764;29;20047;-69
2022/10/16 06:01:05;;;;;;;7.13;4.63;;;;;;;11.39;nan;93980.31;4932375;29;20055;-69
2022/10/16 06:03:31;;;;;;;7.78;4.32;;;;;;;11.34;nan;93976.03;4933026;29;20586;-69
2022/10/16 06:05:59;;;;;;;7.78;4.10;;;;;;;11.39;nan;93983.81;4933158;29;20052;-69
2022/10/16 06:08:25;;;;;;;7.87;3.93;;;;;;;11.44;nan;93985.31;4931854;29;20871;-69
2022/10/16 06:11:03;;;;;;;8.63;4.20;;;;;;;11.51;nan;93989.88;4932974;29;20047;-69
2022/10/16 06:13:30;;;;;;;8.18;3.88;;;;;;;11.56;nan;93992.16;4931835;29;20876;-69
2022/10/16 06:15:59;;;;;;;7.50;4.22;;;;;;;11.65;nan;93997.91;4911150;29;20040;-69
2022/10/16 06:18:27;;;;;;;7.82;4.10;;;;;;;11.72;nan;93999.75;4909688;29;20974;-68
2022/10/16 06:20:55;;;;;;;7.03;4.10;;;;;;;11.80;nan;94003.91;4933116;29;20058;-69
2022/10/16 06:23:22;;;;;;;7.25;4.13;;;;;;;11.83;nan;94008.56;4932539;29;20513;-69
2022/10/16 06:25:49;;;;;;;7.45;4.18;;;;;;;11.89;nan;94012.41;4933148;29;20043;-69
2022/10/16 06:28:16;;;;;;;8.13;4.40;;;;;;;11.95;nan;94018.97;4932322;29;20063;-69
2022/10/16 06:30:46;;;;;;;7.40;3.80;;;;;;;11.84;nan;94017.59;4932914;29;20273;-69
2022/10/16 06:33:13;;;;;;;7.17;4.17;;;;;;;11.78;nan;94015.31;4932458;29;20036;-69
2022/10/16 06:35:39;;;;;;;7.25;4.32;;;;;;;11.90;nan;94018.69;4916137;29;20058;-70
2022/10/16 06:38:06;;;;;;;10.02;4.00;;;;;;;12.03;nan;94016.09;4915532;29;20044;-69
2022/10/16 06:40:33;;;;;;;9.93;4.20;;;;;;;11.84;nan;94026.63;4932755;29;20481;-69
2022/10/16 06:43:00;;;;;;;7.70;4.30;;;;;;;11.82;nan;94026.25;4932158;29;20043;-68
2022/10/16 06:45:26;;;;;;;7.03;3.93;;;;;;;12.04;nan;94036.91;4932554;29;20056;-69
2022/10/16 06:47:53;;;;;;;7.03;3.90;;;;;;;12.31;nan;94037.53;4932703;29;20396;-69
2022/10/16 06:50:20;;;;;;;6.68;3.85;;;;;;;12.13;nan;94042.59;4915414;29;20107;-69
2022/10/16 06:52:47;;;;;;;6.25;3.30;;;;;;;11.79;nan;94038.88;4932500;29;20040;-69
2022/10/16 06:55:14;;;;;;;8.45;3.40;;;;;;;11.69;nan;94033.56;4932207;29;20048;-69
2022/10/16 06:57:41;;;;;;;27.77;16.50;;;;;;;11.78;nan;94051.06;4932512;29;20047;-69
2022/10/16 07:00:08;;;;;;;30.08;18.10;;;;;;;11.80;nan;94047.91;4931991;29;20448;-69
2022/10/16 07:02:35;;;;;;;22.90;14.32;;;;;;;11.97;nan;94054.28;4932624;29;20043;-69
2022/10/16 07:05:02;;;;;;;37.30;19.13;;;;;;;12.11;nan;94053.25;4931965;29;20043;-69
2022/10/16 07:07:29;;;;;;;28.92;15.13;;;;;;;12.20;nan;94059.00;4932465;29;20520;-69
2022/10/16 07:09:56;;;;;;;21.47;13.00;;;;;;;12.36;nan;94061.81;4919078;29;20058;-69
2022/10/16 07:12:22;;;;;;;17.80;9.75;;;;;;;12.54;nan;94068.94;4931972;29;20050;-69
2022/10/16 07:14:52;;;;;;;14.52;7.60;;;;;;;12.58;nan;94073.16;4932402;29;20043;-69
2022/10/16 07:17:18;;;;;;;9.65;5.30;;;;;;;12.42;nan;94075.84;4932151;29;20161;-69
2022/10/16 07:19:45;;;;;;;11.77;5.63;;;;;;;12.39;nan;94088.50;4932406;29;20040;-69
2022/10/16 07:22:12;;;;;;;13.67;8.80;;;;;;;12.52;nan;94085.09;4914926;29;20106;-69
2022/10/16 07:24:39;;;;;;;16.10;7.00;;;;;;;12.69;nan;94097.72;4932288;29;20048;-69
2022/10/16 07:27:05;;;;;;;10.95;5.40;;;;;;;12.64;nan;94091.94;4933713;29;20124;-70
2022/10/16 07:29:32;;;;;;;8.60;4.45;;;;;;;12.90;nan;94102.03;4936012;29;20046;-70
2022/10/16 07:31:59;;;;;;;7.95;3.70;;;;;;;13.04;nan;94103.69;4936290;29;20039;-69
2022/10/16 07:34:26;;;;;;;8.20;4.00;;;;;;;12.90;nan;94091.00;4935233;29;21578;-69
2022/10/16 07:36:53;;;;;;;6.10;3.30;;;;;;;12.77;nan;94092.84;4936209;29;20040;-69
2022/10/16 07:39:20;;;;;;;6.90;4.00;;;;;;;12.69;nan;94105.22;4935068;29;20400;-69
2022/10/16 07:41:47;;;;;;;7.47;4.68;;;;;;;12.77;nan;94106.63;4934758;29;20050;-70
2022/10/16 07:44:15;;;;;;;10.63;7.15;;;;;;;12.93;nan;94103.91;4917378;29;20043;-69
2022/10/16 07:46:42;;;;;;;6.80;4.43;;;;;;;13.11;nan;94108.25;4935368;29;20047;-69
2022/10/16 07:49:09;;;;;;;7.05;4.25;;;;;;;13.13;nan;94117.66;4934416;29;20036;-70
2022/10/16 07:51:38;;;;;;;6.68;4.20;;;;;;;13.14;nan;94112.94;4935428;29;20070;-69
2022/10/16 07:54:04;;;;;;;15.18;6.43;;;;;;;13.12;nan;94121.63;4934776;29;20062;-70
2022/10/16 07:56:32;;;;;;;26.05;12.57;;;;;;;13.02;nan;94119.88;4935630;29;20051;-69
2022/10/16 07:58:59;;;;;;;14.10;8.80;;;;;;;13.22;nan;94121.78;4935783;29;20391;-70
2022/10/16 08:01:26;;;;;;;13.90;8.68;;;;;;;13.21;nan;94123.00;4932788;29;20365;-70
2022/10/16 08:03:53;;;;;;;13.95;7.07;;;;;;;13.27;nan;94126.81;4935238;29;20507;-69
2022/10/16 08:06:21;;;;;;;8.73;5.78;;;;;;;13.41;nan;94125.75;4934712;29;20052;-70
2022/10/16 08:08:52;;;;;;;8.00;4.40;;;;;;;13.55;nan;94128.19;4935300;29;20050;-70
2022/10/16 08:11:19;;;;;;;7.07;4.33;;;;;;;13.61;nan;94131.19;4935056;29;20047;-69
2022/10/16 08:13:46;;;;;;;8.40;3.72;;;;;;;13.80;nan;94138.59;4935550;29;20047;-70
2022/10/16 08:16:12;;;;;;;6.53;4.00;;;;;;;13.90;nan;94134.81;4934870;29;20055;-70
2022/10/16 08:18:40;;;;;;;6.05;3.30;;;;;;;14.11;nan;94127.22;4935585;29;20047;-70
2022/10/16 08:21:14;;;;;;;7.30;3.63;;;;;;;14.07;nan;94130.06;4917617;29;20040;-69
2022/10/16 08:23:46;;;;;;;8.73;5.03;;;;;;;14.06;nan;94136.78;4935169;29;20062;-70
2022/10/16 08:26:14;;;;;;;7.13;4.65;;;;;;;13.89;nan;94143.53;4934532;29;20066;-70
2022/10/16 08:28:41;;;;;;;10.90;5.38;;;;;;;13.93;nan;94150.50;4935212;29;20050;-70
2022/10/16 08:31:10;;;;;;;8.38;4.60;;;;;;;14.23;nan;94151.34;4917936;29;20043;-69
2022/10/16 08:33:39;;;;;;;8.93;4.55;;;;;;;14.34;nan;94160.13;4934989;29;20397;-70
2022/10/16 08:36:06;;;;;;;8.27;3.90;;;;;;;14.72;nan;94170.59;4934833;29;20050;-69
2022/10/16 08:38:34;;;;;;;5.88;3.85;;;;;;;14.79;nan;94164.13;4933370;29;20044;-70
2022/10/16 08:41:24;;;;;;;7.40;3.70;;;;;;;15.15;nan;94168.63;4934353;29;20050;-69
2022/10/16 08:44:10;;;;;;;6.38;4.50;;;;;;;15.16;nan;94168.19;4934457;29;20050;-70
2022/10/16 08:47:16;;;;;;;5.78;3.60;;;;;;;15.33;nan;94181.94;4934241;29;20255;-70
2022/10/16 08:50:07;;;;;;;4.87;3.07;;;;;;;15.45;nan;94175.63;4895116;29;20844;-69
2022/10/16 08:52:38;;;;;;;4.80;2.78;;;;;;;15.53;nan;94171.47;4933270;29;20713;-70
2022/10/16 08:55:06;;;;;;;4.78;2.85;;;;;;;15.52;nan;94178.22;4933868;29;20050;-69
2022/10/16 08:57:32;;;;;;;4.70;2.83;;;;;;;15.57;nan;94188.75;4934582;29;20040;-70
2022/10/16 09:00:11;;;;;;;7.38;3.25;;;;;;;15.73;nan;94184.31;4934871;29;20048;-69
2022/10/16 09:02:45;;;;;;;5.07;3.50;;;;;;;15.59;nan;94177.22;4932962;29;20802;-70
2022/10/16 09:05:21;;;;;;;7.13;3.63;;;;;;;15.62;nan;94183.88;4934164;29;20436;-69
2022/10/16 09:08:13;;;;;;;5.93;4.00;;;;;;;15.72;nan;94189.09;4934231;29;20420;-69
2022/10/16 09:11:00;;;;;;;7.47;4.93;;;;;;;15.86;nan;94187.13;4933303;29;21563;-69
2022/10/16 09:13:33;;;;;;;7.00;4.50;;;;;;;15.63;nan;94188.16;4933409;29;20585;-70
2022/10/16 09:16:32;;;;;;;9.40;6.00;;;;;;;15.70;nan;94185.97;4933757;29;20046;-68
2022/10/16 09:19:24;;;;;;;14.98;8.45;;;;;;;15.89;nan;94186.22;4934253;29;20062;-69
2022/10/16 09:21:52;;;;;;;8.98;4.88;;;;;;;16.22;nan;94191.50;4932946;29;20249;-69
2022/10/16 09:24:23;;;;;;;9.52;5.85;;;;;;;16.60;nan;94185.09;4933300;29;20690;-69
2022/10/16 09:26:54;;;;;;;8.98;6.40;;;;;;;16.66;nan;94181.31;4934149;29;20063;-69
2022/10/16 09:29:23;;;;;;;6.37;3.50;;;;;;;16.81;nan;94181.63;4933419;29;20050;-69
2022/10/16 09:31:51;;;;;;;5.85;3.10;;;;;;;17.10;nan;94183.38;4934147;29;20039;-70
2022/10/16 09:34:29;;;;;;;5.80;3.63;;;;;;;17.29;nan;94190.59;4933403;29;20047;-69
2022/10/16 09:36:58;;;;;;;5.00;3.20;;;;;;;16.80;nan;94188.34;4934085;29;20633;-69
2022/10/16 09:39:25;;;;;;;5.25;3.10;;;;;;;16.92;nan;94198.66;4932722;29;20587;-69
2022/10/16 09:41:53;;;;;;;5.90;3.03;;;;;;;16.93;nan;94193.88;4933884;29;20072;-69
2022/10/16 09:44:31;;;;;;;4.15;2.70;;;;;;;16.97;nan;94205.63;4933297;29;20361;-68
2022/10/16 09:47:03;;;;;;;7.93;3.00;;;;;;;17.12;nan;94194.78;4933827;29;20075;-69
2022/10/16 09:49:30;;;;;;;4.70;2.60;;;;;;;17.02;nan;94187.63;4915288;29;20632;-69
2022/10/16 09:52:05;;;;;;;4.10;2.28;;;;;;;17.18;nan;94190.19;4933533;29;20043;-69
2022/10/16 09:54:32;;;;;;;3.80;2.30;;;;;;;17.23;nan;94197.19;4932817;29;20936;-68
2022/10/16 09:57:13;;;;;;;4.65;2.00;;;;;;;17.43;nan;94200.38;4933397;29;20392;-69
2022/10/16 10:00:09;;;;;;;4.68;2.13;;;;;;;18.09;nan;94197.50;4931020;29;20113;-69
2022/10/16 10:02:38;;;;;;;3.85;2.33;;;;;;;18.54;nan;94195.28;4919473;29;20235;-69
2022/10/16 10:05:16;;;;;;;4.07;2.60;;;;;;;18.72;nan;94198.09;4932874;29;20052;-69
2022/10/16 10:07:46;;;;;;;7.57;2.80;;;;;;;18.46;nan;94196.81;4933644;29;20036;-69
2022/10/16 10:10:30;;;;;;;5.28;2.83;;;;;;;18.71;nan;94201.31;4932893;29;20036;-69
2022/10/16 10:12:58;;;;;;;7.05;2.53;;;;;;;19.18;nan;94205.72;4916370;29;20039;-68
2022/10/16 10:15:35;;;;;;;4.03;2.20;;;;;;;19.35;nan;94206.16;4931759;29;20096;-68
2022/10/16 10:18:03;;;;;;;3.80;2.20;;;;;;;19.49;nan;94201.97;4932692;29;20059;-68
2022/10/16 10:20:33;;;;;;;4.40;2.20;;;;;;;20.09;nan;94201.19;4916041;29;20040;-69
2022/10/16 10:23:22;;;;;;;5.00;2.20;;;;;;;20.38;nan;94208.16;4932611;29;20040;-69
2022/10/16 10:25:49;;;;;;;4.90;2.28;;;;;;;19.80;nan;94209.31;4933221;29;20046;-69
2022/10/16 10:28:22;;;;;;;5.53;3.17;;;;;;;20.18;nan;94205.94;4932262;29;20057;-69
2022/10/16 10:31:08;;;;;;;4.55;2.30;;;;;;;21.15;nan;94203.97;4932816;29;20063;-69
2022/10/16 10:33:50;;;;;;;4.00;1.90;;;;;;;25.97;nan;94200.88;4932029;29;21692;-70
2022/10/16 10:36:39;;;;;;;5.05;1.90;;;;;;;26.28;nan;94186.56;4932177;29;20056;-69
2022/10/16 10:39:18;;;;;;;3.83;1.90;;;;;;;27.40;nan;94195.25;4932244;29;20051;-68
2022/10/16 10:42:21;;;;;;;4.47;1.70;;;;;;;28.91;nan;94189.75;4932983;29;20047;-67
2022/10/16 10:45:12;;;;;;;3.72;1.67;;;;;;;29.02;nan;94192.47;4913108;29;20617;-68
2022/10/16 10:47:58;;;;;;;3.37;1.50;;;;;;;29.00;nan;94185.81;4931743;29;20282;-69
2022/10/16 10:50:40;;;;;;;4.93;1.70;;;;;;;29.22;nan;94176.34;4932120;29;20035;-69
2022/10/16 10:53:36;;;;;;;5.75;2.00;;;;;;;28.28;nan;94181.09;4931535;29;20048;-68
2022/10/16 10:56:41;;;;;;;5.38;2.30;;;;;;;26.34;nan;94180.94;4931936;29;20397;-68
2022/10/16 10:59:19;;;;;;;3.67;1.90;;;;;;;27.77;nan;94171.44;4931726;29;20048;-68
2022/10/16 11:02:17;;;;;;;3.60;1.70;;;;;;;28.32;nan;94174.41;4931372;29;20040;-67
2022/10/16 11:05:15;;;;;;;4.03;1.80;;;;;;;29.22;nan;94171.44;4931554;29;20822;-67
2022/10/16 11:07:50;;;;;;;3.55;1.48;;;;;;;29.74;nan;94180.81;4931429;29;20704;-68
2022/10/16 11:10:24;;;;;;;2.45;1.30;;;;;;;29.31;nan;94169.53;4931649;29;20046;-68
2022/10/16 11:12:58;;;;;;;2.50;1.50;;;;;;;28.16;nan;94170.44;4932737;29;20044;-68
2022/10/16 11:15:37;;;;;;;2.93;1.60;;;;;;;28.27;nan;94162.66;4931435;29;20044;-67
2022/10/16 11:18:48;;;;;;;4.38;1.42;;;;;;;28.32;nan;94160.28;4931752;29;20055;-68
2022/10/16 11:21:19;;;;;;;3.97;1.42;;;;;;;27.41;nan;94157.34;4854001;29;20468;-68
2022/10/16 11:24:32;;;;;;;4.97;1.60;;;;;;;27.72;nan;94147.66;4921852;29;20051;-67
2022/10/16 11:27:07;;;;;;;3.55;1.45;;;;;;;27.44;nan;94148.59;4923430;29;20413;-67
2022/10/16 11:29:40;;;;;;;4.97;1.50;;;;;;;28.08;nan;94156.13;4921729;29;20861;-68
2022/10/16 11:32:20;;;;;;;3.40;1.30;;;;;;;27.44;nan;94142.94;4931584;29;20047;-68
2022/10/16 11:34:51;;;;;;;2.63;1.48;;;;;;;26.41;nan;94149.44;4932135;29;20040;-68
2022/10/16 11:37:26;;;;;;;3.25;1.40;;;;;;;26.10;nan;94147.69;4931503;29;20052;-68
2022/10/16 11:40:04;;;;;;;3.80;1.30;;;;;;;25.64;nan;94143.31;4932129;29;20039;-68
2022/10/16 11:42:39;;;;;;;2.50;1.20;;;;;;;24.77;nan;94145.59;4931046;29;20127;-68
2022/10/16 11:45:06;;;;;;;3.65;1.33;;;;;;;24.31;nan;94141.75;4931138;29;20047;-67
2022/10/16 11:47:33;;;;;;;4.72;1.58;;;;;;;23.87;nan;94140.16;4931527;29;20051;-67
2022/10/16 11:50:28;;;;;;;2.78;1.48;;;;;;;23.15;nan;94140.22;4931129;29;20171;-68
2022/10/16 11:53:00;;;;;;;3.70;1.38;;;;;;;23.21;nan;94146.66;4931597;29;20055;-68
2022/10/16 11:55:34;;;;;;;4.13;1.40;;;;;;;22.68;nan;94140.94;4931172;29;20240;-69
2022/10/16 11:58:23;;;;;;;2.92;1.35;;;;;;;22.27;nan;94142.91;4931652;29;20036;-67
2022/10/16 12:01:02;;;;;;;4.45;1.55;;;;;;;22.51;nan;94131.53;4932023;29;20062;-69
2022/10/16 12:03:41;;;;;;;2.80;1.45;;;;;;;22.53;nan;94131.81;4918043;29;20800;-68
2022/10/16 12:06:23;;;;;;;2.50;1.50;;;;;;;22.10;nan;94137.06;4931523;29;20044;-67